Time;durP1;ratioP1;P1;durP2;ratioP2;P2;SDS_P1;SDS_P2;PMS_P1;PMS_P2;Temp;Humidity;BMP_temperature;BMP_pressure;BME280_temperature;BME280_humidity;BME280_pressure;Samples;Min_cycle;Max_cycle;Signal;HPM_P1;HPM_P2
2022/07/31 00:00:55;;;;;;;16.05;3.65;;;;;;;22.17;43.77;99752.75;5070128;28;20031;-71
2022/07/31 00:03:20;;;;;;;4.00;2.60;;;;;;;22.14;43.78;99752.28;5050119;28;20049;-71
2022/07/31 00:05:46;;;;;;;6.82;2.90;;;;;;;22.08;43.83;99753.91;5050043;28;20025;-71
2022/07/31 00:08:11;;;;;;;5.10;2.88;;;;;;;22.04;43.96;99748.06;5069690;28;20142;-71
2022/07/31 00:10:37;;;;;;;6.60;3.22;;;;;;;22.05;43.95;99741.66;5070079;28;20210;-71
2022/07/31 00:13:03;;;;;;;5.85;2.53;;;;;;;22.07;43.80;99744.97;5069206;28;20025;-71
2022/07/31 00:15:28;;;;;;;5.63;2.83;;;;;;;22.05;43.77;99746.19;5069992;28;20033;-71
2022/07/31 00:17:54;;;;;;;7.47;3.92;;;;;;;22.05;43.97;99746.19;5069802;28;20020;-71
2022/07/31 00:20:20;;;;;;;6.35;3.38;;;;;;;22.02;44.10;99742.03;5069886;28;20138;-71
2022/07/31 00:22:47;;;;;;;9.65;3.10;;;;;;;21.98;44.30;99740.72;5069281;28;20183;-71
2022/07/31 00:25:14;;;;;;;11.43;3.50;;;;;;;21.93;44.44;99743.16;5069087;28;20083;-71
2022/07/31 00:27:40;;;;;;;8.57;3.40;;;;;;;21.98;44.45;99740.72;5069539;28;20036;-71
2022/07/31 00:30:06;;;;;;;6.78;3.00;;;;;;;22.11;44.26;99745.44;5069681;28;20025;-71
2022/07/31 00:32:32;;;;;;;8.50;2.95;;;;;;;22.23;44.02;99734.97;5068431;28;20261;-71
2022/07/31 00:34:57;;;;;;;6.90;3.33;;;;;;;22.28;44.12;99740.63;5069387;28;20099;-71
2022/07/31 00:37:23;;;;;;;6.90;3.45;;;;;;;22.36;44.00;99737.78;5069500;28;20134;-71
2022/07/31 00:39:48;;;;;;;7.88;3.30;;;;;;;22.36;44.50;99736.97;5069247;28;20193;-71
2022/07/31 00:42:24;;;;;;;10.07;3.42;;;;;;;22.43;44.35;99737.88;5069388;28;20024;-71
2022/07/31 00:44:51;;;;;;;7.55;3.03;;;;;;;22.51;44.36;99732.34;5069436;28;20017;-71
2022/07/31 00:47:17;;;;;;;11.43;3.60;;;;;;;22.53;44.10;99727.63;5069261;28;20033;-72
2022/07/31 00:49:44;;;;;;;6.28;3.42;;;;;;;22.40;44.36;99727.47;5068189;28;20241;-71
2022/07/31 00:52:10;;;;;;;9.38;3.08;;;;;;;22.25;44.48;99728.38;5069101;28;20240;-70
2022/07/31 00:54:36;;;;;;;11.13;3.67;;;;;;;22.14;44.68;99733.44;5068877;28;20070;-71
2022/07/31 00:57:02;;;;;;;12.02;3.97;;;;;;;22.04;44.56;99733.75;5068369;28;20233;-71
2022/07/31 00:59:28;;;;;;;8.20;3.60;;;;;;;21.97;44.85;99738.25;5068325;28;20017;-71
2022/07/31 01:01:55;;;;;;;6.47;3.90;;;;;;;21.90;44.94;99736.28;5068383;28;20040;-71
2022/07/31 01:04:21;;;;;;;9.13;3.97;;;;;;;21.83;44.87;99727.31;5068284;28;20092;-71
2022/07/31 01:06:46;;;;;;;7.03;4.05;;;;;;;21.80;44.94;99736.59;5068795;28;20024;-71
2022/07/31 01:09:15;;;;;;;5.93;3.30;;;;;;;21.78;45.14;99735.13;5067719;28;20092;-71
2022/07/31 01:11:49;;;;;;;9.13;3.17;;;;;;;21.78;45.14;99733.25;5050867;28;20134;-70
2022/07/31 01:14:18;;;;;;;10.00;4.07;;;;;;;21.74;45.17;99745.44;5068670;28;20048;-70
2022/07/31 01:16:47;;;;;;;12.40;4.30;;;;;;;21.68;45.26;99740.00;5068682;28;20145;-71
2022/07/31 01:19:46;;;;;;;11.80;4.25;;;;;;;21.64;45.42;99734.97;5068750;28;20017;-70
2022/07/31 01:22:51;;;;;;;7.82;4.35;;;;;;;21.62;45.50;99742.41;5063486;28;20103;-70
2022/07/31 01:25:48;;;;;;;18.48;4.78;;;;;;;21.60;45.33;99736.38;5068707;28;20054;-71
2022/07/31 01:28:42;;;;;;;11.98;3.53;;;;;;;21.64;45.40;99740.34;5035106;28;20037;-71
2022/07/31 01:31:12;;;;;;;12.13;4.70;;;;;;;21.63;45.37;99735.13;5068534;28;20025;-71
2022/07/31 01:34:21;;;;;;;12.60;5.50;;;;;;;21.61;45.42;99739.91;5068162;28;20051;-71
2022/07/31 01:36:55;;;;;;;14.10;3.78;;;;;;;21.58;45.46;99730.28;5040219;28;20033;-69
2022/07/31 01:39:21;;;;;;;11.68;5.18;;;;;;;21.59;45.54;99736.53;5068349;28;20141;-70
2022/07/31 01:41:48;;;;;;;10.32;4.03;;;;;;;21.56;45.54;99739.59;5068205;28;20027;-70
2022/07/31 01:44:16;;;;;;;9.68;4.47;;;;;;;21.52;45.65;99730.22;5068247;28;20019;-69
2022/07/31 01:46:44;;;;;;;12.70;4.53;;;;;;;21.50;45.77;99738.50;5068287;28;20020;-71
2022/07/31 01:49:11;;;;;;;15.48;4.00;;;;;;;21.48;45.71;99730.59;5067428;28;20029;-70
2022/07/31 01:51:38;;;;;;;10.90;4.13;;;;;;;21.51;45.72;99737.47;5067437;28;20021;-70
2022/07/31 01:54:05;;;;;;;13.35;3.83;;;;;;;21.54;45.76;99734.41;5067786;28;20025;-70
2022/07/31 01:56:32;;;;;;;10.48;3.95;;;;;;;21.53;45.74;99729.19;5068014;28;20025;-70
2022/07/31 01:58:59;;;;;;;16.00;4.75;;;;;;;21.50;45.82;99728.53;5067269;28;20027;-70
2022/07/31 02:01:27;;;;;;;9.98;4.38;;;;;;;21.49;45.71;99739.50;5063176;28;20029;-70
2022/07/31 02:03:54;;;;;;;12.98;4.43;;;;;;;21.42;45.92;99739.44;5047927;28;20040;-70
2022/07/31 02:06:22;;;;;;;9.50;4.38;;;;;;;21.41;46.06;99735.06;5047952;28;20031;-71
2022/07/31 02:08:49;;;;;;;12.13;4.82;;;;;;;21.38;46.03;99730.03;5064534;28;20041;-71
2022/07/31 02:11:17;;;;;;;7.40;4.57;;;;;;;21.43;46.11;99743.78;5067686;28;20033;-71
2022/07/31 02:13:44;;;;;;;9.52;4.50;;;;;;;21.42;46.07;99742.13;5067600;28;20078;-71
2022/07/31 02:16:12;;;;;;;10.50;4.28;;;;;;;21.44;46.06;99745.47;5066755;28;20032;-71
2022/07/31 02:18:38;;;;;;;10.85;5.32;;;;;;;21.44;46.18;99744.59;5067815;28;20053;-71
2022/07/31 02:21:03;;;;;;;7.95;4.20;;;;;;;21.44;46.13;99733.84;5067698;28;20032;-71
2022/07/31 02:23:29;;;;;;;11.80;5.25;;;;;;;21.45;46.12;99739.06;5067577;28;20017;-70
2022/07/31 02:25:55;;;;;;;16.05;4.55;;;;;;;21.44;46.19;99734.69;5066904;28;20048;-71
2022/07/31 02:28:21;;;;;;;11.88;4.45;;;;;;;21.43;46.11;99730.34;5065728;28;20049;-70
2022/07/31 02:30:48;;;;;;;8.93;4.35;;;;;;;21.47;46.12;99738.84;5067130;28;20133;-71
2022/07/31 02:33:24;;;;;;;11.23;4.50;;;;;;;21.51;46.14;99737.47;5066493;28;20072;-70
2022/07/31 02:35:53;;;;;;;9.52;4.53;;;;;;;21.51;46.02;99729.41;5050036;28;20186;-71
2022/07/31 02:38:21;;;;;;;12.10;4.35;;;;;;;21.46;46.14;99731.81;5066805;28;20238;-70
2022/07/31 02:40:48;;;;;;;15.60;5.55;;;;;;;21.44;46.24;99734.69;5054035;28;20053;-71
2022/07/31 02:43:14;;;;;;;14.35;5.15;;;;;;;21.47;46.40;99730.78;5054976;28;20033;-71
2022/07/31 02:45:41;;;;;;;8.88;4.40;;;;;;;21.47;46.29;99739.69;5066944;28;20025;-71
2022/07/31 02:48:08;;;;;;;18.35;4.75;;;;;;;21.46;46.32;99729.09;5066501;28;20100;-72
2022/07/31 02:50:34;;;;;;;9.77;5.50;;;;;;;21.48;46.31;99733.28;5067348;28;20036;-72
2022/07/31 02:52:59;;;;;;;13.90;5.68;;;;;;;21.46;46.52;99734.50;5066774;28;20021;-70
2022/07/31 02:55:26;;;;;;;11.80;5.18;;;;;;;21.42;46.61;99734.03;5067230;28;20032;-71
2022/07/31 02:57:51;;;;;;;12.65;5.05;;;;;;;21.43;46.54;99735.72;5067409;28;20309;-70
2022/07/31 03:00:21;;;;;;;9.98;4.50;;;;;;;21.46;46.63;99737.19;5067231;28;20088;-70
2022/07/31 03:02:48;;;;;;;8.68;4.20;;;;;;;21.44;46.60;99731.16;5051486;28;20014;-71
2022/07/31 03:05:15;;;;;;;13.48;4.43;;;;;;;21.44;46.61;99723.06;5047469;28;20114;-70
2022/07/31 03:07:40;;;;;;;6.88;4.50;;;;;;;21.44;46.88;99739.22;5047200;28;20092;-71
2022/07/31 03:10:06;;;;;;;11.27;4.55;;;;;;;21.44;46.71;99728.47;5047221;28;20021;-71
2022/07/31 03:12:32;;;;;;;9.05;4.95;;;;;;;21.46;46.92;99731.81;5046507;28;20045;-71
2022/07/31 03:14:59;;;;;;;11.82;5.10;;;;;;;21.49;46.85;99736.81;5050669;28;20010;-71
2022/07/31 03:17:26;;;;;;;11.90;5.32;;;;;;;21.53;46.71;99735.44;5051034;28;20285;-69
2022/07/31 03:19:52;;;;;;;7.68;4.45;;;;;;;21.58;46.78;99741.06;5051010;28;20088;-72
2022/07/31 03:22:18;;;;;;;8.82;4.57;;;;;;;21.61;46.91;99734.53;5050922;28;20032;-72
2022/07/31 03:24:43;;;;;;;10.65;5.13;;;;;;;21.72;46.75;99736.72;5050960;28;20029;-71
2022/07/31 03:27:09;;;;;;;13.13;4.82;;;;;;;21.84;46.75;99733.53;5050845;28;20119;-72
2022/07/31 03:29:39;;;;;;;11.80;4.93;;;;;;;21.99;46.55;99746.94;5033619;28;20071;-72
2022/07/31 03:32:05;;;;;;;12.45;5.30;;;;;;;22.07;46.46;99739.56;5050752;28;20021;-72
2022/07/31 03:34:30;;;;;;;18.27;5.53;;;;;;;22.14;46.50;99742.34;5050695;28;20032;-72
2022/07/31 03:36:57;;;;;;;14.32;6.00;;;;;;;22.08;46.64;99743.13;5050636;28;20040;-71
2022/07/31 03:39:24;;;;;;;12.18;5.30;;;;;;;22.01;46.74;99740.34;5050681;28;20025;-69
2022/07/31 03:41:51;;;;;;;10.13;5.78;;;;;;;22.04;46.49;99745.38;5050604;28;20021;-71
2022/07/31 03:44:18;;;;;;;12.50;4.78;;;;;;;22.10;46.62;99744.59;5050639;28;20040;-71
2022/07/31 03:46:43;;;;;;;10.05;4.95;;;;;;;22.19;46.08;99749.88;5050315;28;20084;-71
2022/07/31 03:49:09;;;;;;;10.43;5.00;;;;;;;22.26;45.97;99753.44;5050483;28;20230;-71
2022/07/31 03:51:34;;;;;;;12.85;4.75;;;;;;;22.30;46.01;99756.59;5050461;28;20048;-70
2022/07/31 03:54:00;;;;;;;13.60;4.60;;;;;;;22.30;46.02;99748.50;5050269;28;20033;-70
2022/07/31 03:56:27;;;;;;;12.48;5.20;;;;;;;22.31;45.94;99759.09;5050365;28;20038;-71
2022/07/31 03:58:53;;;;;;;11.43;4.80;;;;;;;22.39;45.71;99758.16;5050248;28;20021;-71
2022/07/31 04:01:20;;;;;;;10.25;4.60;;;;;;;22.42;45.47;99749.72;5053486;28;20066;-71
2022/07/31 04:03:45;;;;;;;11.77;4.72;;;;;;;22.33;45.71;99753.50;5070207;28;20189;-71
2022/07/31 04:06:11;;;;;;;9.38;5.13;;;;;;;22.26;45.81;99761.53;5070157;28;20029;-71
2022/07/31 04:08:36;;;;;;;10.73;4.60;;;;;;;22.29;45.82;99758.47;5070048;28;20013;-70
2022/07/31 04:11:02;;;;;;;15.02;5.45;;;;;;;22.31;45.64;99755.56;5070055;28;20088;-70
2022/07/31 04:13:27;;;;;;;10.95;4.60;;;;;;;22.32;45.63;99751.84;5069768;28;20013;-71
2022/07/31 04:15:53;;;;;;;8.52;4.43;;;;;;;22.38;45.54;99753.78;5069993;28;20268;-70
2022/07/31 04:18:18;;;;;;;8.38;4.00;;;;;;;22.43;45.22;99754.03;5069731;28;20037;-71
2022/07/31 04:20:43;;;;;;;8.07;4.50;;;;;;;22.48;44.90;99761.59;5069883;28;20021;-71
2022/07/31 04:23:09;;;;;;;10.02;4.53;;;;;;;22.52;45.07;99760.13;5069740;28;20027;-70
2022/07/31 04:25:35;;;;;;;14.98;4.55;;;;;;;22.56;45.05;99764.13;5069346;28;20222;-70
2022/07/31 04:28:00;;;;;;;11.48;4.43;;;;;;;22.60;44.91;99753.78;5069551;28;20024;-71
2022/07/31 04:30:26;;;;;;;10.15;4.10;;;;;;;22.65;44.65;99754.03;5069718;28;20091;-71
2022/07/31 04:32:51;;;;;;;9.05;3.83;;;;;;;22.74;44.68;99755.56;5069603;28;20041;-71
2022/07/31 04:35:17;;;;;;;9.23;3.80;;;;;;;22.85;44.48;99759.59;5069856;28;20028;-71
2022/07/31 04:37:42;;;;;;;18.45;4.25;;;;;;;23.02;44.19;99758.25;5069504;28;20083;-71
2022/07/31 04:40:09;;;;;;;8.50;3.50;;;;;;;23.24;43.60;99760.09;5052345;28;20016;-71
2022/07/31 04:42:35;;;;;;;12.05;4.03;;;;;;;23.42;43.07;99759.56;5069328;28;20032;-71
2022/07/31 04:45:01;;;;;;;13.75;3.90;;;;;;;23.69;42.64;99747.03;5069449;28;20135;-70
2022/07/31 04:47:26;;;;;;;7.32;3.63;;;;;;;24.13;42.18;99746.75;5069065;28;20028;-71
2022/07/31 04:49:52;;;;;;;9.50;4.15;;;;;;;24.56;41.07;99743.69;5067394;28;20226;-71
2022/07/31 04:52:17;;;;;;;6.43;3.88;;;;;;;24.94;40.09;99747.66;5049516;28;20092;-73
2022/07/31 04:54:42;;;;;;;6.50;3.97;;;;;;;25.20;39.61;99740.50;5051649;28;20024;-70
2022/07/31 04:57:08;;;;;;;6.57;2.78;;;;;;;25.48;39.04;99744.81;5068493;28;20032;-71
2022/07/31 04:59:33;;;;;;;5.88;3.10;;;;;;;25.73;38.51;99739.50;5069100;28;20219;-72
2022/07/31 05:01:59;;;;;;;8.35;3.38;;;;;;;25.92;38.15;99745.06;5068938;28;20020;-71
2022/07/31 05:04:25;;;;;;;6.72;2.78;;;;;;;26.12;37.56;99743.06;5069075;28;20088;-71
2022/07/31 05:06:51;;;;;;;11.02;3.92;;;;;;;26.25;37.44;99742.16;5068215;28;20249;-71
2022/07/31 05:09:19;;;;;;;5.97;3.13;;;;;;;26.39;37.32;99739.34;5068757;28;20040;-72
2022/07/31 05:11:47;;;;;;;6.93;3.10;;;;;;;26.54;36.77;99741.75;5068077;28;20074;-71
2022/07/31 05:14:13;;;;;;;6.85;3.00;;;;;;;26.65;36.19;99733.69;5068790;28;20138;-71
2022/07/31 05:16:39;;;;;;;3.78;2.15;;;;;;;26.74;35.78;99739.69;5068215;28;20028;-71
2022/07/31 05:19:05;;;;;;;9.80;1.92;;;;;;;26.75;35.33;99732.38;5068053;28;20082;-71
2022/07/31 05:21:31;;;;;;;4.00;1.70;;;;;;;26.82;34.98;99733.16;5068216;28;20044;-71
2022/07/31 05:23:58;;;;;;;3.85;2.20;;;;;;;26.90;34.63;99732.91;5067789;28;20084;-71
2022/07/31 05:26:24;;;;;;;5.03;1.70;;;;;;;27.00;34.70;99724.22;5068423;28;20013;-71
2022/07/31 05:28:51;;;;;;;5.22;1.77;;;;;;;27.10;34.08;99721.84;5068527;28;20177;-71
2022/07/31 05:31:18;;;;;;;2.33;1.55;;;;;;;27.14;33.83;99716.78;5068562;28;20024;-71
2022/07/31 05:33:45;;;;;;;3.08;1.80;;;;;;;27.18;34.13;99722.56;5068309;28;20020;-71
2022/07/31 05:36:11;;;;;;;3.30;1.38;;;;;;;27.24;33.92;99725.22;5067684;28;20048;-71
2022/07/31 05:38:36;;;;;;;3.22;1.20;;;;;;;27.30;33.67;99723.47;5068336;28;20237;-71
2022/07/31 05:41:02;;;;;;;3.10;1.20;;;;;;;27.30;33.30;99712.59;5051207;28;20021;-71
2022/07/31 05:43:28;;;;;;;5.53;1.00;;;;;;;27.29;33.27;99710.94;5048320;28;20021;-71
2022/07/31 05:45:54;;;;;;;4.18;1.00;;;;;;;27.32;33.50;99706.97;5048311;28;20063;-71
2022/07/31 05:48:19;;;;;;;2.00;1.20;;;;;;;27.37;32.89;99704.38;5048096;28;20107;-72
2022/07/31 05:50:46;;;;;;;1.38;0.73;;;;;;;27.42;32.56;99702.63;5048200;28;20029;-71
2022/07/31 05:53:15;;;;;;;1.63;0.82;;;;;;;27.40;32.33;99699.34;5048046;28;20029;-72
2022/07/31 05:55:42;;;;;;;4.20;1.60;;;;;;;27.37;32.64;99705.22;5048087;28;20029;-71
2022/07/31 05:58:07;;;;;;;4.85;1.23;;;;;;;27.34;33.01;99704.84;5048013;28;20030;-71
2022/07/31 06:00:33;;;;;;;3.30;1.13;;;;;;;27.38;33.20;99706.88;5048062;28;20241;-71
2022/07/31 06:02:59;;;;;;;2.42;1.10;;;;;;;27.38;32.89;99722.34;5065101;28;20027;-71
2022/07/31 06:05:26;;;;;;;3.22;1.17;;;;;;;27.30;32.31;99722.66;5050525;28;20005;-71
2022/07/31 06:07:52;;;;;;;3.63;1.00;;;;;;;27.24;32.45;99716.25;5068040;28;20092;-71
2022/07/31 06:10:18;;;;;;;2.45;1.10;;;;;;;27.21;32.89;99711.25;5067881;28;20287;-72
2022/07/31 06:12:44;;;;;;;1.83;1.10;;;;;;;27.19;33.27;99716.09;5067546;28;20025;-71
2022/07/31 06:15:09;;;;;;;4.68;1.17;;;;;;;26.96;33.33;99709.44;5067713;28;20021;-70
2022/07/31 06:17:37;;;;;;;1.55;0.80;;;;;;;26.62;33.92;99711.63;5067674;28;20033;-70
2022/07/31 06:20:03;;;;;;;2.97;1.27;;;;;;;26.40;34.21;99712.00;5067718;28;20024;-71
2022/07/31 06:22:29;;;;;;;1.70;0.88;;;;;;;26.26;33.86;99715.84;5050078;28;20063;-71
2022/07/31 06:24:55;;;;;;;3.40;0.90;;;;;;;26.09;34.40;99712.81;5067582;28;20024;-70
2022/07/31 06:27:21;;;;;;;1.92;0.90;;;;;;;25.89;33.73;99720.03;5066419;28;20017;-71
2022/07/31 06:29:47;;;;;;;6.03;0.80;;;;;;;25.75;34.26;99715.75;5067220;28;20029;-72
2022/07/31 06:32:12;;;;;;;2.78;1.00;;;;;;;25.67;34.32;99718.69;5049882;28;20048;-72
2022/07/31 06:34:38;;;;;;;3.42;0.95;;;;;;;25.57;34.72;99719.19;5067279;28;20063;-71
2022/07/31 06:37:03;;;;;;;1.23;0.63;;;;;;;25.51;35.15;99715.44;5066546;28;20013;-71
2022/07/31 06:39:29;;;;;;;2.33;0.90;;;;;;;25.49;34.95;99722.13;5067476;28;20035;-69
2022/07/31 06:41:54;;;;;;;1.42;1.05;;;;;;;25.46;35.32;99719.81;5067349;28;20036;-71
2022/07/31 06:44:20;;;;;;;1.88;0.80;;;;;;;25.45;35.63;99721.72;5067419;28;20017;-71
2022/07/31 06:46:46;;;;;;;1.30;0.60;;;;;;;25.42;35.62;99714.84;5067055;28;20167;-71
2022/07/31 06:49:11;;;;;;;2.45;0.80;;;;;;;25.41;35.47;99707.78;5073600;28;20048;-72
2022/07/31 06:51:37;;;;;;;2.17;0.85;;;;;;;25.37;35.63;99698.38;5074311;28;20129;-72
2022/07/31 06:54:05;;;;;;;1.80;0.73;;;;;;;25.39;35.69;99709.84;5073355;28;20021;-71
2022/07/31 06:56:32;;;;;;;1.02;0.73;;;;;;;25.39;34.97;99706.28;5073545;28;20040;-70
2022/07/31 06:58:58;;;;;;;2.88;0.90;;;;;;;25.41;34.19;99698.78;5073791;28;20024;-71
2022/07/31 07:01:24;;;;;;;1.95;0.55;;;;;;;25.42;33.65;99706.72;5056222;28;20017;-70
2022/07/31 07:03:49;;;;;;;1.27;0.77;;;;;;;25.47;33.78;99697.09;5072972;28;20234;-72
2022/07/31 07:06:15;;;;;;;1.75;0.55;;;;;;;25.49;33.55;99690.44;5073769;28;20032;-70
2022/07/31 07:08:40;;;;;;;1.02;0.75;;;;;;;25.51;33.63;99701.06;5072898;28;20055;-71
2022/07/31 07:11:06;;;;;;;4.68;0.68;;;;;;;25.54;34.26;99703.34;5073676;28;20025;-70
2022/07/31 07:13:32;;;;;;;1.92;0.80;;;;;;;25.54;34.55;99698.75;5072308;28;20127;-70
2022/07/31 07:15:57;;;;;;;4.95;0.80;;;;;;;25.57;34.56;99698.31;5073697;28;20055;-70
2022/07/31 07:18:23;;;;;;;2.92;0.73;;;;;;;25.57;33.77;99692.91;5072428;28;20025;-71
2022/07/31 07:20:49;;;;;;;2.22;1.23;;;;;;;25.58;33.40;99696.47;5073602;28;20055;-71
2022/07/31 07:23:14;;;;;;;5.32;1.00;;;;;;;25.57;33.33;99698.31;5073684;28;20024;-70
2022/07/31 07:25:40;;;;;;;1.77;0.80;;;;;;;25.54;33.17;99700.63;5073742;28;20024;-71
2022/07/31 07:28:06;;;;;;;1.73;0.70;;;;;;;25.51;33.22;99692.94;5073191;28;20067;-71
2022/07/31 07:30:32;;;;;;;2.65;0.85;;;;;;;25.51;33.53;99696.50;5055842;28;20048;-71
2022/07/31 07:32:58;;;;;;;4.00;0.82;;;;;;;25.52;33.87;99698.13;5073477;28;20141;-71
2022/07/31 07:35:24;;;;;;;3.60;0.93;;;;;;;25.52;33.46;99694.59;5073554;28;20020;-71
2022/07/31 07:37:50;;;;;;;4.30;0.88;;;;;;;25.51;32.82;99692.94;5072991;28;20052;-70
2022/07/31 07:40:18;;;;;;;4.72;0.93;;;;;;;25.49;32.05;99684.19;5073575;28;20039;-72
2022/07/31 07:42:44;;;;;;;2.63;1.00;;;;;;;25.43;31.58;99689.44;5073469;28;20031;-72
2022/07/31 07:45:10;;;;;;;7.80;1.02;;;;;;;25.36;31.36;99691.28;5073606;28;20029;-72
2022/07/31 07:47:36;;;;;;;8.02;1.20;;;;;;;25.31;31.21;99684.88;5072836;28;20036;-71
2022/07/31 07:50:04;;;;;;;3.85;0.88;;;;;;;25.27;31.24;99685.28;5071180;28;20045;-71
2022/07/31 07:52:30;;;;;;;2.92;0.85;;;;;;;25.27;30.96;99689.88;5071873;28;20029;-72
2022/07/31 07:54:55;;;;;;;5.15;0.88;;;;;;;25.22;31.07;99678.84;5072897;28;20023;-71
2022/07/31 07:57:22;;;;;;;1.63;1.00;;;;;;;25.22;31.29;99685.09;5060204;28;20037;-70
2022/07/31 07:59:47;;;;;;;3.10;0.77;;;;;;;25.24;31.16;99671.34;5050386;28;20036;-71
2022/07/31 08:02:14;;;;;;;2.35;0.88;;;;;;;25.25;31.13;99673.84;5058537;28;20130;-71
2022/07/31 08:04:41;;;;;;;1.92;0.80;;;;;;;25.28;31.75;99673.41;5070048;28;20020;-70
2022/07/31 08:07:06;;;;;;;2.78;0.90;;;;;;;25.32;31.23;99676.50;5069468;28;20032;-71
2022/07/31 08:09:33;;;;;;;2.33;1.10;;;;;;;25.34;30.71;99670.91;5070049;28;20021;-70
2022/07/31 08:11:59;;;;;;;4.88;1.20;;;;;;;25.25;30.71;99665.72;5069861;28;20080;-71
2022/07/31 08:14:25;;;;;;;3.78;0.90;;;;;;;25.26;30.69;99672.78;5052369;28;20016;-70
2022/07/31 08:16:51;;;;;;;2.17;0.77;;;;;;;25.26;30.54;99667.38;5069901;28;20025;-70
2022/07/31 08:19:17;;;;;;;2.25;0.90;;;;;;;25.26;30.49;99672.78;5069840;28;20021;-71
2022/07/31 08:21:42;;;;;;;1.20;0.60;;;;;;;25.27;30.78;99674.47;5069786;28;20181;-71
2022/07/31 08:24:09;;;;;;;2.92;1.35;;;;;;;25.29;31.28;99679.69;5069674;28;20222;-70
2022/07/31 08:29:19;;;;;;;5.60;1.08;;;;;;;25.29;31.72;99671.56;5069682;28;20076;-70
2022/07/31 08:31:44;;;;;;;5.65;1.27;;;;;;;25.27;31.70;99673.63;5069613;28;20234;-70
2022/07/31 08:34:10;;;;;;;2.92;0.95;;;;;;;25.26;31.81;99678.19;5069488;28;20020;-71
2022/07/31 08:36:36;;;;;;;3.97;1.10;;;;;;;25.23;31.45;99665.09;5069564;28;20024;-71
2022/07/31 08:39:02;;;;;;;5.55;1.13;;;;;;;25.27;31.55;99677.16;5069163;28;20131;-71
2022/07/31 08:41:28;;;;;;;4.47;1.38;;;;;;;25.27;31.12;99666.34;5049411;28;20013;-70
2022/07/31 08:43:55;;;;;;;4.10;1.30;;;;;;;25.24;30.79;99668.66;5049326;28;20021;-70
2022/07/31 08:46:22;;;;;;;1.85;0.90;;;;;;;25.21;30.72;99656.38;5049403;28;20022;-71
2022/07/31 08:48:52;;;;;;;3.80;1.08;;;;;;;25.25;30.68;99660.28;5049003;28;20026;-71
2022/07/31 08:51:18;;;;;;;1.90;1.60;;;;;;;25.25;30.24;99656.78;5049237;28;20017;-71
2022/07/31 08:53:45;;;;;;;1.42;1.08;;;;;;;25.27;30.64;99660.09;5049113;28;20025;-70
2022/07/31 08:56:11;;;;;;;2.15;1.10;;;;;;;25.31;30.77;99658.59;5049179;28;20186;-71
2022/07/31 08:58:37;;;;;;;6.07;1.10;;;;;;;25.35;30.69;99653.59;5049047;28;20258;-71
2022/07/31 09:01:02;;;;;;;4.20;1.48;;;;;;;25.38;30.46;99662.13;5049094;28;20021;-71
2022/07/31 09:03:28;;;;;;;3.92;1.10;;;;;;;25.37;30.59;99652.34;5048990;28;20020;-71
2022/07/31 09:05:54;;;;;;;4.20;1.10;;;;;;;25.37;30.41;99648.78;5049020;28;20032;-71
2022/07/31 09:08:20;;;;;;;2.15;1.27;;;;;;;25.39;30.40;99652.09;5048960;28;20038;-71
2022/07/31 09:10:45;;;;;;;3.78;1.10;;;;;;;25.38;30.35;99651.28;5047867;28;20065;-70
2022/07/31 09:13:17;;;;;;;1.40;0.90;;;;;;;25.42;30.57;99649.00;5048620;28;20041;-70
2022/07/31 09:15:43;;;;;;;3.30;1.15;;;;;;;25.44;30.49;99658.56;5049007;28;20021;-70
2022/07/31 09:18:20;;;;;;;4.05;1.20;;;;;;;25.43;30.62;99643.38;5048677;28;20017;-71
2022/07/31 09:20:55;;;;;;;4.53;0.70;;;;;;;25.50;30.17;99642.50;5049002;28;20013;-70
2022/07/31 09:23:21;;;;;;;1.85;1.08;;;;;;;25.51;29.87;99645.03;5048598;28;20044;-71
2022/07/31 09:25:58;;;;;;;2.15;1.10;;;;;;;25.53;29.93;99639.38;5048531;28;20045;-70
2022/07/31 09:28:36;;;;;;;1.70;1.02;;;;;;;25.56;30.14;99638.94;5048293;28;20235;-71
2022/07/31 09:31:03;;;;;;;4.93;1.55;;;;;;;25.61;29.85;99646.41;5048578;28;20025;-71
2022/07/31 09:33:29;;;;;;;4.32;0.90;;;;;;;25.63;29.72;99641.63;5048044;28;20022;-71
2022/07/31 09:35:55;;;;;;;1.75;1.00;;;;;;;25.64;29.71;99635.16;5048345;28;20049;-71
2022/07/31 09:38:30;;;;;;;2.78;1.02;;;;;;;25.65;29.92;99636.81;5048248;28;20021;-71
2022/07/31 09:40:55;;;;;;;1.77;0.85;;;;;;;25.62;29.78;99639.94;5048608;28;20014;-71
2022/07/31 09:43:26;;;;;;;2.80;0.93;;;;;;;25.57;29.79;99643.31;5048097;28;20119;-71
2022/07/31 09:46:02;;;;;;;1.63;0.82;;;;;;;25.57;30.16;99649.56;5048062;28;20246;-71
2022/07/31 09:48:28;;;;;;;6.68;0.85;;;;;;;25.58;29.86;99640.38;5048003;28;20245;-71
2022/07/31 09:50:55;;;;;;;3.90;1.13;;;;;;;25.61;29.48;99652.66;5048123;28;20021;-72
2022/07/31 09:53:21;;;;;;;1.65;0.70;;;;;;;25.58;29.19;99642.28;5048005;28;20029;-72
2022/07/31 09:55:51;;;;;;;2.08;1.27;;;;;;;25.53;29.06;99642.91;5048111;28;20029;-73
2022/07/31 09:58:17;;;;;;;6.40;0.87;;;;;;;25.52;29.44;99652.06;5047931;28;20026;-72
2022/07/31 10:00:42;;;;;;;2.72;1.02;;;;;;;25.56;29.40;99656.00;5047714;28;20246;-72
2022/07/31 10:03:09;;;;;;;3.42;0.85;;;;;;;25.62;29.91;99653.50;5047993;28;20051;-72
2022/07/31 10:05:36;;;;;;;1.58;0.95;;;;;;;25.62;29.30;99658.91;5047744;28;20025;-72
2022/07/31 10:08:03;;;;;;;1.88;0.93;;;;;;;25.59;29.03;99655.59;5047864;28;20072;-72
2022/07/31 10:10:30;;;;;;;3.88;1.02;;;;;;;25.56;29.25;99649.78;5047745;28;20025;-72
2022/07/31 10:13:01;;;;;;;1.80;1.10;;;;;;;25.58;29.16;99651.22;5062697;28;20147;-72
2022/07/31 10:15:27;;;;;;;1.90;1.00;;;;;;;25.59;29.59;99642.03;5067586;28;20040;-72
2022/07/31 10:17:53;;;;;;;8.27;1.30;;;;;;;25.67;29.63;99653.66;5050123;28;20146;-72
2022/07/31 10:20:23;;;;;;;2.42;1.33;;;;;;;25.69;29.29;99647.00;5067344;28;20071;-72
2022/07/31 10:22:54;;;;;;;7.25;1.52;;;;;;;25.70;28.74;99645.09;5067050;28;20056;-72
2022/07/31 10:25:23;;;;;;;3.17;1.58;;;;;;;25.65;28.68;99640.34;5067337;28;20198;-73
2022/07/31 10:27:50;;;;;;;8.70;2.88;;;;;;;25.66;29.25;99643.91;5067394;28;20024;-72
2022/07/31 10:30:16;;;;;;;13.18;4.43;;;;;;;25.65;29.79;99636.81;5067483;28;20207;-72
2022/07/31 10:32:42;;;;;;;12.20;2.38;;;;;;;25.64;29.17;99637.84;5067360;28;20029;-72
2022/07/31 10:35:08;;;;;;;26.17;6.53;;;;;;;25.63;29.77;99633.50;5067348;28;20021;-72
2022/07/31 10:37:58;;;;;;;5.70;1.80;;;;;;;25.65;29.31;99644.94;5067394;28;20063;-72
2022/07/31 10:40:40;;;;;;;5.65;2.50;;;;;;;25.69;29.44;99651.56;5056615;28;20294;-72
2022/07/31 10:43:15;;;;;;;6.47;2.70;;;;;;;25.72;29.29;99643.00;5067354;28;20293;-72
2022/07/31 10:45:48;;;;;;;6.07;1.67;;;;;;;25.72;28.86;99648.44;5067353;28;20033;-72
2022/07/31 10:48:14;;;;;;;2.30;1.30;;;;;;;25.70;28.89;99642.38;5067154;28;20079;-71
2022/07/31 10:50:39;;;;;;;3.20;1.15;;;;;;;25.69;28.81;99635.31;5058828;28;20100;-71
2022/07/31 10:53:24;;;;;;;2.45;1.10;;;;;;;25.69;28.74;99638.88;5047315;28;20029;-71
2022/07/31 10:55:59;;;;;;;1.38;1.00;;;;;;;25.67;28.37;99637.41;5047262;28;20043;-71
2022/07/31 10:58:24;;;;;;;2.05;1.00;;;;;;;25.60;28.61;99637.44;5047252;28;20253;-71
2022/07/31 11:01:07;;;;;;;4.90;1.10;;;;;;;25.62;28.95;99621.81;5047242;28;20021;-71
2022/07/31 11:03:43;;;;;;;4.10;1.20;;;;;;;25.66;28.68;99624.94;5047208;28;20048;-71
2022/07/31 11:06:09;;;;;;;3.30;1.23;;;;;;;25.72;28.74;99626.75;5047182;28;20025;-71
2022/07/31 11:08:44;;;;;;;4.63;1.10;;;;;;;25.79;28.81;99626.69;5047131;28;20021;-70
2022/07/31 11:11:11;;;;;;;2.20;1.05;;;;;;;25.82;28.89;99627.09;5047608;28;20056;-71
2022/07/31 11:13:48;;;;;;;1.45;0.80;;;;;;;25.83;28.62;99609.78;5066668;28;20035;-70
2022/07/31 11:16:14;;;;;;;2.15;1.00;;;;;;;25.84;28.39;99611.44;5061954;28;20051;-71
2022/07/31 11:18:39;;;;;;;1.13;0.63;;;;;;;25.80;28.47;99614.81;5066361;28;20219;-71
2022/07/31 11:21:07;;;;;;;1.27;0.82;;;;;;;25.69;28.54;99614.47;5066512;28;20276;-71
2022/07/31 11:23:34;;;;;;;1.23;0.80;;;;;;;25.68;29.18;99611.97;5066967;28;20032;-71
2022/07/31 11:26:08;;;;;;;2.78;1.00;;;;;;;25.68;28.51;99611.97;5066989;28;20028;-71
2022/07/31 11:28:34;;;;;;;5.10;1.48;;;;;;;25.67;28.59;99613.84;5066771;28;20031;-71
2022/07/31 11:31:08;;;;;;;1.73;0.80;;;;;;;25.70;28.40;99608.00;5065932;28;20024;-71
2022/07/31 11:33:37;;;;;;;1.98;1.00;;;;;;;25.76;28.56;99614.44;5062564;28;20100;-71
2022/07/31 11:36:14;;;;;;;2.08;0.90;;;;;;;25.70;28.45;99605.28;5063351;28;20029;-71